createdAt,value
2017-11-20T00:01:44.629Z,6.90
2017-11-20T00:04:11.002Z,6.74
2017-11-20T00:06:37.231Z,6.60
2017-11-20T00:09:03.469Z,6.57
2017-11-20T00:11:29.801Z,6.34
2017-11-20T00:13:56.044Z,6.16
2017-11-20T00:16:22.276Z,6.00
2017-11-20T00:18:48.553Z,5.97
2017-11-20T00:21:14.800Z,5.89
2017-11-20T00:23:41.052Z,5.89
2017-11-20T00:26:07.319Z,5.91
2017-11-20T00:28:33.560Z,5.87
2017-11-20T00:30:59.793Z,5.91
2017-11-20T00:33:26.165Z,5.85
2017-11-20T00:35:52.386Z,5.93
2017-11-20T00:38:18.766Z,5.88
2017-11-20T00:40:45.256Z,5.88
2017-11-20T00:43:11.488Z,5.85
2017-11-20T00:45:37.716Z,5.88
2017-11-20T00:48:04.004Z,5.83
2017-11-20T00:50:30.454Z,5.84
2017-11-20T00:52:57.016Z,5.87
2017-11-20T00:55:23.299Z,5.76
2017-11-20T00:57:49.528Z,5.85
2017-11-20T01:00:15.769Z,5.92
2017-11-20T01:02:42.128Z,6.00
2017-11-20T01:05:08.377Z,6.04
2017-11-20T01:07:34.602Z,6.03
2017-11-20T01:10:00.893Z,6.08
2017-11-20T01:12:27.139Z,6.11
2017-11-20T01:14:53.403Z,6.16
2017-11-20T01:17:19.686Z,6.12
2017-11-20T01:19:45.912Z,6.08
2017-11-20T01:22:12.139Z,5.87
2017-11-20T01:24:38.419Z,5.55
2017-11-20T01:27:04.664Z,5.29
2017-11-20T01:29:30.907Z,5.03
2017-11-20T01:31:57.192Z,4.68
2017-11-20T01:34:23.410Z,4.43
2017-11-20T01:36:49.647Z,4.25
2017-11-20T01:39:15.928Z,4.18
2017-11-20T01:41:42.156Z,4.13
2017-11-20T01:44:08.443Z,4.03
2017-11-20T01:46:34.719Z,4.09
2017-11-20T01:49:00.955Z,3.96
2017-11-20T01:51:27.201Z,3.99
2017-11-20T01:53:53.475Z,3.93
2017-11-20T01:56:19.732Z,3.87
2017-11-20T01:58:45.982Z,3.93
2017-11-20T02:01:12.256Z,3.93
2017-11-20T02:03:38.497Z,3.86
2017-11-20T02:06:04.741Z,3.83
2017-11-20T02:08:31.130Z,3.76
2017-11-20T02:10:57.360Z,3.79
2017-11-20T02:13:23.586Z,3.79
2017-11-20T02:15:49.853Z,3.80
2017-11-20T02:18:16.081Z,3.82
2017-11-20T02:20:42.309Z,3.87
2017-11-20T02:23:08.572Z,3.85
2017-11-20T02:25:34.933Z,3.88
2017-11-20T02:28:01.169Z,3.94
2017-11-20T02:30:27.435Z,3.80
2017-11-20T02:32:53.666Z,3.95
2017-11-20T02:35:19.915Z,4.05
2017-11-20T02:37:46.268Z,4.06
2017-11-20T02:40:12.488Z,4.06
2017-11-20T02:42:38.724Z,4.05
2017-11-20T02:45:05.003Z,4.09
2017-11-20T02:47:31.222Z,4.09
2017-11-20T02:49:57.446Z,3.92
2017-11-20T02:52:23.730Z,3.82
2017-11-20T02:54:49.979Z,3.78
2017-11-20T02:57:16.277Z,3.74
2017-11-20T02:59:42.532Z,3.83
2017-11-20T03:02:08.769Z,3.85
2017-11-20T03:04:35.022Z,3.80
2017-11-20T03:07:01.283Z,3.78
2017-11-20T03:09:27.498Z,3.53
2017-11-20T03:11:53.719Z,3.50
2017-11-20T03:14:20.832Z,3.42
2017-11-20T03:16:47.062Z,3.26
2017-11-20T03:19:13.283Z,3.23
2017-11-20T03:21:39.615Z,2.96
2017-11-20T03:24:05.830Z,3.02
2017-11-20T03:26:32.070Z,3.04
2017-11-20T03:28:58.326Z,3.07
2017-11-20T03:31:24.558Z,3.08
2017-11-20T03:33:50.784Z,2.87
2017-11-20T03:36:17.040Z,2.73
2017-11-20T03:38:43.266Z,2.70
2017-11-20T03:41:09.493Z,2.56
2017-11-20T03:43:35.741Z,2.55
2017-11-20T03:46:01.953Z,2.63
2017-11-20T03:48:28.177Z,2.52
2017-11-20T03:50:54.432Z,2.65
2017-11-20T03:53:20.630Z,2.70
2017-11-20T03:55:46.856Z,2.68
2017-11-20T03:58:13.106Z,2.62
2017-11-20T04:00:39.352Z,2.52
2017-11-20T04:03:05.716Z,2.48
2017-11-20T04:05:32.288Z,2.28
2017-11-20T04:07:58.500Z,2.36
2017-11-20T04:10:24.722Z,2.25
2017-11-20T04:12:50.986Z,2.29
2017-11-20T04:15:17.202Z,2.28
2017-11-20T04:17:43.418Z,2.25
2017-11-20T04:20:09.665Z,2.25
2017-11-20T04:22:35.920Z,2.28
2017-11-20T04:25:02.164Z,2.31
2017-11-20T04:27:28.436Z,2.35
2017-11-20T04:29:54.647Z,2.33
2017-11-20T04:32:20.842Z,2.24
2017-11-20T04:34:47.106Z,2.27
2017-11-20T04:37:13.346Z,2.33
2017-11-20T04:39:39.618Z,2.33
2017-11-20T04:42:05.968Z,2.34
2017-11-20T04:44:32.182Z,2.35
2017-11-20T04:46:58.404Z,2.31
2017-11-20T04:49:24.672Z,2.27
2017-11-20T04:51:50.916Z,2.35
2017-11-20T04:54:17.132Z,2.35
2017-11-20T04:56:43.395Z,2.38
2017-11-20T04:59:09.612Z,2.35
2017-11-20T05:01:35.897Z,2.35
2017-11-20T05:04:02.246Z,2.33
2017-11-20T05:06:28.542Z,2.36
2017-11-20T05:08:54.774Z,2.33
2017-11-20T05:11:21.140Z,2.29
2017-11-20T05:13:47.380Z,2.27
2017-11-20T05:16:13.619Z,2.27
2017-11-20T05:18:40.235Z,2.28
2017-11-20T05:21:06.853Z,2.26
2017-11-20T05:23:33.272Z,2.24
2017-11-20T05:25:59.534Z,2.24
2017-11-20T05:28:26.154Z,2.25
2017-11-20T05:30:52.573Z,2.26
2017-11-20T05:33:19.215Z,2.28
2017-11-20T05:35:45.655Z,2.26
2017-11-20T05:38:12.097Z,2.22
2017-11-20T05:40:38.749Z,2.20
2017-11-20T05:43:05.231Z,2.28
2017-11-20T05:45:31.621Z,2.28
2017-11-20T05:47:58.051Z,2.28
2017-11-20T05:50:24.688Z,2.33
2017-11-20T05:52:51.124Z,2.35
2017-11-20T05:55:17.737Z,2.35
2017-11-20T05:57:43.993Z,2.34
2017-11-20T06:00:10.597Z,2.35
2017-11-20T06:02:37.060Z,2.37
2017-11-20T06:05:03.700Z,2.34
2017-11-20T06:07:30.319Z,2.39
2017-11-20T06:09:56.974Z,2.36
2017-11-20T06:12:23.605Z,2.41
2017-11-20T06:14:50.250Z,2.42
2017-11-20T06:17:16.740Z,2.43
2017-11-20T06:19:43.321Z,2.41
2017-11-20T06:22:09.946Z,2.47
2017-11-20T06:24:36.438Z,2.50
2017-11-20T06:27:02.879Z,2.46
2017-11-20T06:29:29.318Z,2.55
2017-11-20T06:31:55.762Z,2.57
2017-11-20T06:34:22.126Z,2.60
2017-11-20T06:36:48.623Z,2.60
2017-11-20T06:39:15.063Z,2.66
2017-11-20T06:41:41.632Z,2.71
2017-11-20T06:44:08.098Z,2.79
2017-11-20T06:46:34.498Z,2.83
2017-11-20T06:49:00.782Z,2.91
2017-11-20T06:51:27.366Z,3.36
2017-11-20T06:53:53.989Z,3.50
2017-11-20T06:56:20.643Z,3.48
2017-11-20T06:58:47.297Z,3.62
2017-11-20T07:01:13.889Z,3.40
2017-11-20T07:03:40.306Z,3.30
2017-11-20T07:06:06.647Z,3.72
2017-11-20T07:08:33.164Z,3.77
2017-11-20T07:10:59.606Z,3.73
2017-11-20T07:13:26.305Z,4.06
2017-11-20T07:15:53.139Z,4.24
2017-11-20T07:18:19.624Z,4.28
2017-11-20T07:20:46.173Z,4.20
2017-11-20T07:23:12.866Z,4.57
2017-11-20T07:25:39.329Z,4.85
2017-11-20T07:28:05.697Z,4.63
2017-11-20T07:30:32.350Z,4.62
2017-11-20T07:32:58.855Z,4.70
2017-11-20T07:35:25.229Z,4.57
2017-11-20T07:37:51.841Z,4.43
2017-11-20T07:40:18.500Z,4.28
2017-11-20T07:42:45.122Z,4.21
2017-11-20T07:45:11.593Z,4.12
2017-11-20T07:47:38.202Z,4.09
2017-11-20T07:50:04.851Z,4.13
2017-11-20T07:52:31.486Z,4.16
2017-11-20T07:54:58.107Z,4.19
2017-11-20T07:57:24.761Z,4.22
2017-11-20T07:59:51.397Z,4.24
2017-11-20T08:02:18.005Z,4.24
2017-11-20T08:04:44.423Z,4.29
2017-11-20T08:07:10.912Z,4.35
2017-11-20T08:09:37.540Z,4.44
2017-11-20T08:12:04.046Z,4.45
2017-11-20T08:14:30.570Z,4.48
2017-11-20T08:16:57.006Z,4.53
2017-11-20T08:19:23.477Z,4.59
2017-11-20T08:21:49.962Z,4.57
2017-11-20T08:24:16.413Z,4.50
2017-11-20T08:26:42.780Z,4.49
2017-11-20T08:29:09.264Z,4.40
2017-11-20T08:31:35.711Z,4.38
2017-11-20T08:34:02.118Z,4.32
2017-11-20T08:36:28.810Z,4.27
2017-11-20T08:38:55.306Z,4.15
2017-11-20T08:41:21.992Z,4.21
2017-11-20T08:43:48.813Z,4.19
2017-11-20T08:46:15.257Z,4.27
2017-11-20T08:48:41.905Z,4.20
2017-11-20T08:51:08.579Z,4.11
2017-11-20T08:53:35.182Z,4.00
2017-11-20T08:56:01.798Z,3.90
2017-11-20T08:58:28.316Z,3.85
2017-11-20T09:00:54.752Z,4.01
2017-11-20T09:03:21.295Z,4.06
2017-11-20T09:05:47.761Z,4.00
2017-11-20T09:08:14.277Z,3.93
2017-11-20T09:10:40.798Z,3.92
2017-11-20T09:13:07.471Z,3.90
2017-11-20T09:15:33.901Z,3.90
2017-11-20T09:18:00.523Z,3.86
2017-11-20T09:20:27.177Z,3.77
2017-11-20T09:22:53.611Z,3.79
2017-11-20T09:25:20.151Z,3.83
2017-11-20T09:27:46.508Z,3.74
2017-11-20T09:30:13.106Z,3.73
2017-11-20T09:32:39.721Z,3.71
2017-11-20T09:35:06.180Z,3.76
2017-11-20T09:37:32.828Z,3.82
2017-11-20T09:39:59.822Z,3.82
2017-11-20T09:42:26.512Z,3.80
2017-11-20T09:44:53.328Z,3.81
2017-11-20T09:47:19.749Z,3.92
2017-11-20T09:49:46.414Z,4.07
2017-11-20T09:52:13.065Z,4.21
2017-11-20T09:54:39.706Z,4.34
2017-11-20T09:57:06.194Z,4.45
2017-11-20T09:59:32.631Z,4.51
2017-11-20T10:01:59.008Z,4.63
2017-11-20T10:04:25.514Z,4.81
2017-11-20T10:06:51.930Z,4.92
2017-11-20T10:09:18.334Z,4.94
2017-11-20T10:11:44.890Z,5.03
2017-11-20T10:14:11.331Z,5.18
2017-11-20T10:16:37.672Z,5.13
2017-11-20T10:19:04.189Z,5.22
2017-11-20T10:21:30.631Z,5.14
2017-11-20T10:23:56.967Z,5.06
2017-11-20T10:26:23.339Z,5.13
2017-11-20T10:28:49.955Z,5.03
2017-11-20T10:31:16.373Z,5.12
2017-11-20T10:33:43.049Z,4.99
2017-11-20T10:36:09.272Z,5.07
2017-11-20T10:38:35.905Z,5.16
2017-11-20T10:41:02.204Z,5.13
2017-11-20T10:43:28.577Z,5.12
2017-11-20T10:45:55.072Z,5.06
2017-11-20T10:48:21.538Z,5.02
2017-11-20T10:50:48.041Z,5.10
2017-11-20T10:53:14.473Z,5.12
2017-11-20T10:55:40.972Z,5.20
2017-11-20T10:58:07.559Z,5.38
2017-11-20T11:00:33.971Z,5.48
2017-11-20T11:03:00.419Z,5.52
2017-11-20T11:05:26.882Z,5.50
2017-11-20T11:07:53.375Z,5.44
2017-11-20T11:10:19.912Z,5.45
2017-11-20T11:12:46.357Z,5.43
2017-11-20T11:15:12.618Z,5.49
2017-11-20T11:17:38.997Z,5.43
2017-11-20T11:20:05.246Z,5.47
2017-11-20T11:22:31.492Z,5.57
2017-11-20T11:24:57.771Z,5.41
2017-11-20T11:27:23.999Z,5.42
2017-11-20T11:29:50.246Z,5.30
2017-11-20T11:32:16.635Z,5.34
2017-11-20T11:34:43.272Z,5.42
2017-11-20T11:37:09.772Z,5.49
2017-11-20T11:39:36.291Z,5.59
2017-11-20T11:42:02.579Z,5.83
2017-11-20T11:44:29.203Z,5.98
2017-11-20T11:46:55.815Z,6.03
2017-11-20T11:49:22.158Z,6.12
2017-11-20T11:51:48.719Z,6.17
2017-11-20T11:54:15.152Z,6.18
2017-11-20T11:56:41.733Z,6.24
2017-11-20T11:59:08.176Z,6.14
2017-11-20T12:01:34.652Z,6.16
2017-11-20T12:04:01.133Z,6.16
2017-11-20T12:06:27.674Z,6.12
2017-11-20T12:08:54.141Z,5.96
2017-11-20T12:11:20.795Z,5.83
2017-11-20T12:13:47.233Z,6.05
2017-11-20T12:16:13.715Z,6.17
2017-11-20T12:18:40.099Z,6.15
2017-11-20T12:21:06.739Z,6.26
2017-11-20T12:23:33.218Z,6.34
2017-11-20T12:25:59.806Z,6.45
2017-11-20T12:28:26.423Z,6.52
2017-11-20T12:30:52.868Z,6.65
2017-11-20T12:33:19.510Z,6.69
2017-11-20T12:35:46.003Z,6.78
2017-11-20T12:38:12.548Z,6.86
2017-11-20T12:40:38.985Z,6.95
2017-11-20T12:43:05.658Z,7.09
2017-11-20T12:45:32.111Z,7.05
2017-11-20T12:47:58.710Z,7.09
2017-11-20T12:50:25.369Z,6.84
2017-11-20T12:52:51.990Z,7.00
2017-11-20T12:55:18.644Z,6.97
2017-11-20T12:57:45.284Z,7.02
2017-11-20T13:00:11.893Z,7.07
2017-11-20T13:02:38.334Z,7.19
2017-11-20T13:05:04.993Z,7.24
2017-11-20T13:07:31.494Z,7.24
2017-11-20T13:09:57.868Z,7.28
2017-11-20T13:12:24.380Z,7.38
2017-11-20T13:14:50.955Z,7.40
2017-11-20T13:17:17.555Z,7.32
2017-11-20T13:19:44.208Z,7.37
2017-11-20T13:22:10.643Z,7.43
2017-11-20T13:24:37.076Z,7.55
2017-11-20T13:27:03.703Z,7.42
2017-11-20T13:29:30.350Z,7.42
2017-11-20T13:31:56.937Z,7.40
2017-11-20T13:34:23.628Z,7.25
2017-11-20T13:36:50.070Z,7.35
2017-11-20T13:39:16.685Z,7.43
2017-11-20T13:41:43.338Z,7.51
2017-11-20T13:44:09.971Z,7.60
2017-11-20T13:46:36.193Z,7.68
2017-11-20T13:49:02.833Z,7.62
2017-11-20T13:51:29.100Z,7.66
2017-11-20T13:53:55.709Z,7.57
2017-11-20T13:56:22.203Z,7.43
2017-11-20T13:58:48.789Z,7.44
2017-11-20T14:01:15.263Z,7.45
2017-11-20T14:03:42.053Z,7.42
2017-11-20T14:06:08.669Z,7.26
2017-11-20T14:08:35.108Z,7.23
2017-11-20T14:11:01.973Z,7.15
2017-11-20T14:13:28.612Z,7.03
2017-11-20T14:15:55.236Z,6.92
2017-11-20T14:18:21.887Z,6.85
2017-11-20T14:20:48.494Z,6.84
2017-11-20T14:23:14.680Z,6.83
2017-11-20T14:25:40.895Z,6.81
2017-11-20T14:28:07.076Z,6.73
2017-11-20T14:30:33.268Z,6.68
2017-11-20T14:32:59.491Z,6.63
2017-11-20T14:35:25.672Z,6.62
2017-11-20T14:37:51.821Z,6.60
2017-11-20T14:40:18.055Z,6.57
2017-11-20T14:42:44.237Z,6.56
2017-11-20T14:45:10.419Z,6.50
2017-11-20T14:47:36.627Z,6.43
2017-11-20T14:50:02.807Z,6.40
2017-11-20T14:52:28.970Z,6.41
2017-11-20T14:54:55.169Z,6.45
2017-11-20T14:57:21.340Z,6.51
2017-11-20T14:59:47.560Z,6.54
2017-11-20T15:02:13.764Z,6.54
2017-11-20T15:04:40.016Z,6.53
2017-11-20T15:07:06.213Z,6.56
2017-11-20T15:09:32.443Z,6.60
2017-11-20T15:11:58.630Z,6.58
2017-11-20T15:14:24.830Z,6.54
2017-11-20T15:16:51.043Z,6.54
2017-11-20T15:19:17.340Z,6.52
2017-11-20T15:21:43.513Z,6.51
2017-11-20T15:24:09.706Z,6.51
2017-11-20T15:26:35.875Z,6.50
2017-11-20T15:29:02.051Z,6.46
2017-11-20T15:31:28.472Z,6.29
2017-11-20T15:33:54.980Z,6.29
2017-11-20T15:36:21.609Z,6.25
2017-11-20T15:38:48.047Z,6.25
2017-11-20T15:41:14.262Z,6.16
2017-11-20T15:43:40.503Z,6.12
2017-11-20T15:46:07.129Z,5.94
2017-11-20T15:48:33.371Z,5.98
2017-11-20T15:50:59.895Z,5.96
2017-11-20T15:53:26.308Z,5.91
2017-11-20T15:55:52.727Z,5.87
2017-11-20T15:58:19.168Z,5.86
2017-11-20T16:00:45.713Z,5.85
2017-11-20T16:03:12.124Z,5.79
2017-11-20T16:05:38.565Z,5.69
2017-11-20T16:08:05.251Z,5.63
2017-11-20T16:10:31.950Z,5.56
2017-11-20T16:12:58.393Z,5.54
2017-11-20T16:15:24.909Z,5.49
2017-11-20T16:17:51.250Z,5.43
2017-11-20T16:20:17.827Z,5.42
2017-11-20T16:22:44.468Z,5.39
2017-11-20T16:25:11.075Z,5.34
2017-11-20T16:27:37.353Z,5.32
2017-11-20T16:30:03.972Z,5.25
2017-11-20T16:32:30.450Z,5.22
2017-11-20T16:34:56.896Z,5.14
2017-11-20T16:37:23.166Z,5.12
2017-11-20T16:39:49.393Z,5.11
2017-11-20T16:42:15.654Z,5.03
2017-11-20T16:44:41.929Z,5.02
2017-11-20T16:47:08.215Z,5.04
2017-11-20T16:49:34.484Z,4.99
2017-11-20T16:52:00.757Z,4.99
2017-11-20T16:54:26.995Z,4.97
2017-11-20T16:56:53.252Z,4.99
2017-11-20T16:59:19.528Z,4.96
2017-11-20T17:01:45.776Z,4.93
2017-11-20T17:04:12.012Z,4.88
2017-11-20T17:06:38.290Z,4.89
2017-11-20T17:09:04.515Z,4.94
2017-11-20T17:11:30.742Z,4.88
2017-11-20T17:13:57.047Z,4.85
2017-11-20T17:16:23.265Z,4.88
2017-11-20T17:18:49.504Z,4.91
2017-11-20T17:21:15.756Z,4.95
2017-11-20T17:23:41.984Z,5.08
2017-11-20T17:26:08.212Z,5.06
2017-11-20T17:28:34.460Z,5.12
2017-11-20T17:31:00.674Z,5.12
2017-11-20T17:33:26.901Z,5.20
2017-11-20T17:35:53.248Z,5.23
2017-11-20T17:38:19.479Z,5.30
2017-11-20T17:40:45.840Z,5.35
2017-11-20T17:43:12.129Z,5.32
2017-11-20T17:45:38.364Z,5.35
2017-11-20T17:48:04.611Z,5.38
2017-11-20T17:50:30.877Z,5.41
2017-11-20T17:52:57.158Z,5.41
2017-11-20T17:55:23.399Z,5.45
2017-11-20T17:57:49.728Z,5.49
2017-11-20T18:00:15.970Z,5.53
2017-11-20T18:02:42.229Z,5.57
2017-11-20T18:05:08.496Z,5.55
2017-11-20T18:07:34.752Z,5.63
2017-11-20T18:10:00.995Z,5.67
2017-11-20T18:12:27.273Z,5.66
2017-11-20T18:14:53.496Z,5.68
2017-11-20T18:17:19.738Z,5.73
2017-11-20T18:19:46.008Z,5.76
2017-11-20T18:22:12.244Z,5.79
2017-11-20T18:24:38.480Z,5.81
2017-11-20T18:27:04.757Z,5.83
2017-11-20T18:29:31.002Z,5.80
2017-11-20T18:31:57.236Z,5.84
2017-11-20T18:34:23.522Z,5.81
2017-11-20T18:36:49.763Z,5.83
2017-11-20T18:39:16.009Z,5.85
2017-11-20T18:41:42.289Z,5.87
2017-11-20T18:44:08.531Z,5.87
2017-11-20T18:46:34.783Z,5.90
2017-11-20T18:49:01.064Z,5.93
2017-11-20T18:51:27.300Z,5.91
2017-11-20T18:53:53.538Z,5.93
2017-11-20T18:56:19.830Z,5.92
2017-11-20T18:58:46.167Z,5.92
2017-11-20T19:01:12.451Z,5.94
2017-11-20T19:03:38.725Z,6.03
2017-11-20T19:06:05.162Z,5.99
2017-11-20T19:08:31.406Z,6.04
2017-11-20T19:10:57.666Z,6.07
2017-11-20T19:13:23.884Z,6.06
2017-11-20T19:15:50.130Z,6.09
2017-11-20T19:18:16.405Z,6.09
2017-11-20T19:20:42.615Z,6.06
2017-11-20T19:23:08.845Z,6.10
2017-11-20T19:25:35.116Z,6.09
2017-11-20T19:28:01.354Z,6.06
2017-11-20T19:30:27.574Z,6.08
2017-11-20T19:32:53.889Z,6.07
2017-11-20T19:35:20.125Z,6.07
2017-11-20T19:37:46.373Z,6.08
2017-11-20T19:40:12.657Z,6.08
2017-11-20T19:42:38.892Z,6.06
2017-11-20T19:45:05.230Z,6.03
2017-11-20T19:47:31.514Z,6.08
2017-11-20T19:49:57.747Z,6.06
2017-11-20T19:52:23.979Z,6.11
2017-11-20T19:54:50.262Z,6.06
2017-11-20T19:57:16.503Z,6.10
2017-11-20T19:59:42.735Z,6.12
2017-11-20T20:02:09.030Z,6.14
2017-11-20T20:04:35.274Z,6.14
2017-11-20T20:07:01.521Z,6.09
2017-11-20T20:09:27.781Z,6.11
2017-11-20T20:11:54.007Z,6.10
2017-11-20T20:14:20.254Z,6.12
2017-11-20T20:16:46.600Z,6.12
2017-11-20T20:19:12.856Z,6.13
2017-11-20T20:21:39.102Z,6.16
2017-11-20T20:24:05.445Z,6.20
2017-11-20T20:26:31.689Z,6.17
2017-11-20T20:28:57.959Z,6.14
2017-11-20T20:31:24.232Z,6.18
2017-11-20T20:33:50.473Z,6.18
2017-11-20T20:36:16.710Z,6.18
2017-11-20T20:38:43.002Z,6.16
2017-11-20T20:41:09.236Z,6.15
2017-11-20T20:43:35.543Z,6.17
2017-11-20T20:46:01.799Z,6.12
2017-11-20T20:48:28.027Z,6.16
2017-11-20T20:50:54.314Z,6.10
2017-11-20T20:53:20.557Z,6.09
2017-11-20T20:55:47.058Z,6.14
2017-11-20T20:58:13.569Z,6.17
2017-11-20T21:00:39.804Z,6.17
2017-11-20T21:03:06.087Z,6.20
2017-11-20T21:05:32.422Z,6.14
2017-11-20T21:07:58.668Z,6.12
2017-11-20T21:10:25.110Z,6.12
2017-11-20T21:12:51.579Z,6.09
2017-11-20T21:15:18.022Z,6.08
2017-11-20T21:17:44.478Z,6.05
2017-11-20T21:20:11.145Z,6.12
2017-11-20T21:22:37.617Z,6.11
2017-11-20T21:25:04.059Z,6.07
2017-11-20T21:27:30.276Z,5.97
2017-11-20T21:29:56.548Z,5.98
2017-11-20T21:32:22.781Z,5.85
2017-11-20T21:34:49.029Z,5.83
2017-11-20T21:37:15.362Z,5.73
2017-11-20T21:39:41.591Z,5.70
2017-11-20T21:42:07.824Z,5.67
2017-11-20T21:44:34.116Z,5.66
2017-11-20T21:47:00.465Z,5.55
2017-11-20T21:49:26.979Z,5.52
2017-11-20T21:51:53.468Z,5.45
2017-11-20T21:54:19.910Z,5.46
2017-11-20T21:56:46.176Z,5.46
2017-11-20T21:59:12.797Z,5.41
2017-11-20T22:01:39.211Z,5.37
2017-11-20T22:04:05.651Z,5.36
2017-11-20T22:06:32.170Z,5.41
2017-11-20T22:08:58.411Z,5.41
2017-11-20T22:11:24.657Z,5.45
2017-11-20T22:13:51.170Z,5.44
2017-11-20T22:16:17.610Z,5.50
2017-11-20T22:18:44.055Z,5.44
2017-11-20T22:21:10.571Z,5.55
2017-11-20T22:23:37.012Z,5.61
2017-11-20T22:26:03.452Z,5.64
2017-11-20T22:28:29.969Z,5.66
2017-11-20T22:30:56.310Z,5.72
2017-11-20T22:33:22.728Z,5.73
2017-11-20T22:35:49.169Z,5.75
2017-11-20T22:38:15.420Z,5.73
2017-11-20T22:40:41.954Z,5.73
2017-11-20T22:43:08.395Z,5.77
2017-11-20T22:45:34.816Z,5.76
2017-11-20T22:48:01.229Z,5.80
2017-11-20T22:50:27.673Z,5.82
2017-11-20T22:52:54.115Z,5.82
2017-11-20T22:55:20.407Z,5.84
2017-11-20T22:57:46.877Z,5.86
2017-11-20T23:00:13.286Z,5.85
2017-11-20T23:02:39.882Z,5.88
2017-11-20T23:05:06.495Z,5.80
2017-11-20T23:07:32.913Z,5.74
2017-11-20T23:09:59.358Z,5.75
2017-11-20T23:12:25.870Z,5.73
2017-11-20T23:14:52.119Z,5.77
2017-11-20T23:17:18.345Z,5.78
2017-11-20T23:19:44.629Z,5.79
2017-11-20T23:22:10.909Z,5.76
2017-11-20T23:24:37.176Z,5.81
2017-11-20T23:27:03.452Z,5.80
2017-11-20T23:29:29.692Z,5.83
2017-11-20T23:31:55.941Z,5.76
2017-11-20T23:34:22.203Z,5.71
2017-11-20T23:36:48.518Z,5.59
2017-11-20T23:39:15.159Z,5.58
2017-11-20T23:41:41.650Z,5.47
2017-11-20T23:44:08.088Z,5.42
2017-11-20T23:46:34.660Z,5.44
2017-11-20T23:49:01.282Z,5.40
2017-11-20T23:51:27.793Z,5.38
2017-11-20T23:53:54.238Z,5.31
2017-11-20T23:56:20.672Z,5.25
2017-11-20T23:58:47.091Z,5.23
